Time;durP1;ratioP1;P1;durP2;ratioP2;P2;SDS_P1;SDS_P2;PMS_P1;PMS_P2;Temp;Humidity;BMP_temperature;BMP_pressure;BME280_temperature;BME280_humidity;BME280_pressure;Samples;Min_cycle;Max_cycle;Signal;HPM_P1;HPM_P2
2022/01/14 00:01:20;;;;;;;;;;;;;;;;;;4944858;29;20360;-68
2022/01/14 00:03:45;;;;;;;;;;;;;;;;;;4944785;28;19926;-69
2022/01/14 00:06:11;;;;;;;;;;;;;;;;;;4944610;28;19926;-67
2022/01/14 00:08:36;;;;;;;;;;;;;;;;;;4944053;29;19922;-70
2022/01/14 00:11:03;;;;;;;;;;;;;;;;;;4943765;28;19922;-68
2022/01/14 00:16:03;;;;;;;;;;;;;;;;;;4944266;29;19930;-68
2022/01/14 00:18:28;;;;;;;;;;;;;;;;;;4941379;28;19918;-68
2022/01/14 00:20:53;;;;;;;;;;;;;;;;;;4931546;28;19921;-67
2022/01/14 00:23:26;;;;;;;;;;;;;;;;;;4939068;29;19941;-68
2022/01/14 00:34:04;;;;;;;;;;;;;;;;;;4943733;28;19918;-69
2022/01/14 00:36:29;;;;;;;;;;;;;;;;;;4945302;28;20001;-68
2022/01/14 00:38:55;;;;;;;;;;;;;;;;;;4941195;29;20001;-69
2022/01/14 00:41:20;;;;;;;;;;;;;;;;;;4943236;29;19933;-68
2022/01/14 00:43:45;;;;;;;;;;;;;;;;;;4944002;28;20267;-69
2022/01/14 00:46:10;;;;;;;;;;;;;;;;;;4941010;28;19923;-68
2022/01/14 00:48:38;;;;;;;;;;;;;;;;;;4943850;28;20384;-68
2022/01/14 00:51:03;;;;;;;;;;;;;;;;;;4945123;29;19917;-69
2022/01/14 00:53:29;;;;;;;;;;;;;;;;;;4942396;28;19918;-68
2022/01/14 00:56:05;;;;;;;;;;;;;;;;;;4942810;28;20312;-69
2022/01/14 01:01:14;;;;;;;;;;;;;;;;;;4936236;28;20407;-68
2022/01/14 01:03:39;;;;;;;;;;;;;;;;;;4938388;28;19958;-69
2022/01/14 01:06:06;;;;;;;;;;;;;;;;;;4940718;28;20013;-69
2022/01/14 01:08:32;;;;;;;;;;;;;;;;;;4939614;29;19973;-68
2022/01/14 01:10:57;;;;;;;;;;;;;;;;;;4939470;29;20005;-69
2022/01/14 01:13:28;;;;;;;;;;;;;;;;;;4942740;28;19918;-68
2022/01/14 01:15:54;;;;;;;;;;;;;;;;;;4945263;28;19926;-68
2022/01/14 01:18:19;;;;;;;;;;;;;;;;;;4942764;28;20271;-69
2022/01/14 01:20:44;;;;;;;;;;;;;;;;;;4940041;28;19919;-69
2022/01/14 01:23:09;;;;;;;;;;;;;;;;;;4944150;28;19918;-69
2022/01/14 01:25:56;;;;;;;;;;;;;;;;;;4940827;28;19923;-68
2022/01/14 01:28:21;;;;;;;;;;;;;;;;;;4941013;29;19925;-68
2022/01/14 01:33:21;;;;;;;;;;;;;;;;;;4941661;28;19926;-67
2022/01/14 01:35:46;;;;;;;;;;;;;;;;;;4943511;29;19961;-69
2022/01/14 01:38:16;;;;;;;;;;;;;;;;;;4942855;28;19926;-67
2022/01/14 01:40:41;;;;;;;;;;;;;;;;;;4941769;29;20360;-68
2022/01/14 01:43:09;;;;;;;;;;;;;;;;;;4945331;28;19925;-69
2022/01/14 01:45:34;;;;;;;;;;;;;;;;;;4943468;29;20451;-67
2022/01/14 01:48:00;;;;;;;;;;;;;;;;;;4944137;28;19915;-68
2022/01/14 01:50:25;;;;;;;;;;;;;;;;;;4942826;29;20368;-68
2022/01/14 01:52:50;;;;;;;;;;;;;;;;;;4942787;28;19919;-67
2022/01/14 01:55:15;;;;;;;;;;;;;;;;;;4942368;28;19919;-68
2022/01/14 01:57:44;;;;;;;;;;;;;;;;;;4941142;29;19919;-68
2022/01/14 02:00:09;;;;;;;;;;;;;;;;;;4943447;28;20324;-68
2022/01/14 02:02:40;;;;;;;;;;;;;;;;;;4938640;28;20016;-68
2022/01/14 02:05:06;;;;;;;;;;;;;;;;;;4943365;28;20283;-68
2022/01/14 02:07:31;;;;;;;;;;;;;;;;;;4940402;28;19923;-69
2022/01/14 02:13:05;;;;;;;;;;;;;;;;;;4939883;29;20478;-68
2022/01/14 02:23:22;;;;;;;;;;;;;;;;;;4939748;29;19918;-68
2022/01/14 02:25:48;;;;;;;;;;;;;;;;;;4940085;29;20371;-68
2022/01/14 02:28:13;;;;;;;;;;;;;;;;;;4939656;29;20363;-68
2022/01/14 02:30:39;;;;;;;;;;;;;;;;;;4942211;28;19918;-68
2022/01/14 02:33:04;;;;;;;;;;;;;;;;;;4941777;28;19918;-68
2022/01/14 02:35:30;;;;;;;;;;;;;;;;;;4940896;28;19919;-68
2022/01/14 02:37:55;;;;;;;;;;;;;;;;;;4941846;29;19938;-68
2022/01/14 02:40:20;;;;;;;;;;;;;;;;;;4940423;29;19919;-67
2022/01/14 02:42:48;;;;;;;;;;;;;;;;;;4942995;29;19926;-68
2022/01/14 02:45:13;;;;;;;;;;;;;;;;;;4941693;29;20038;-68
2022/01/14 02:47:38;;;;;;;;;;;;;;;;;;4939322;29;20018;-68
2022/01/14 02:50:03;;;;;;;;;;;;;;;;;;4940171;29;19923;-68
2022/01/14 02:55:32;;;;;;;;;;;;;;;;;;4926814;29;19922;-68
2022/01/14 02:57:57;;;;;;;;;;;;;;;;;;4938351;28;20470;-68
2022/01/14 03:00:22;;;;;;;;;;;;;;;;;;4939997;29;20546;-68
2022/01/14 03:02:47;;;;;;;;;;;;;;;;;;4942985;28;19949;-68
2022/01/14 03:05:13;;;;;;;;;;;;;;;;;;4940728;28;19922;-68
2022/01/14 03:07:38;;;;;;;;;;;;;;;;;;4941696;28;19923;-68
2022/01/14 03:10:03;;;;;;;;;;;;;;;;;;4941022;28;19941;-68
2022/01/14 03:12:28;;;;;;;;;;;;;;;;;;4941264;28;20035;-68
2022/01/14 03:14:53;;;;;;;;;;;;;;;;;;4940298;29;20418;-67
2022/01/14 03:17:19;;;;;;;;;;;;;;;;;;4938495;28;20013;-67
2022/01/14 03:19:45;;;;;;;;;;;;;;;;;;4942635;29;19919;-67
2022/01/14 03:22:20;;;;;;;;;;;;;;;;;;4939419;29;20022;-67
2022/01/14 03:27:10;;;;;;;;;;;;;;;;;;4942013;29;19922;-67
2022/01/14 03:29:35;;;;;;;;;;;;;;;;;;4939215;28;19973;-67
2022/01/14 03:32:01;;;;;;;;;;;;;;;;;;4941034;28;20013;-68
2022/01/14 03:34:26;;;;;;;;;;;;;;;;;;4940036;29;20001;-68
2022/01/14 03:36:52;;;;;;;;;;;;;;;;;;4939631;28;19978;-68
2022/01/14 03:39:17;;;;;;;;;;;;;;;;;;4941648;29;19918;-68
2022/01/14 03:41:42;;;;;;;;;;;;;;;;;;4938147;28;19922;-68
2022/01/14 03:44:07;;;;;;;;;;;;;;;;;;4921220;29;20307;-68
2022/01/14 03:46:32;;;;;;;;;;;;;;;;;;4937557;28;20395;-67
2022/01/14 03:48:58;;;;;;;;;;;;;;;;;;4939726;28;19922;-68
2022/01/14 03:51:24;;;;;;;;;;;;;;;;;;4942649;28;20078;-68
2022/01/14 03:53:49;;;;;;;;;;;;;;;;;;4941754;29;19960;-68
2022/01/14 03:56:14;;;;;;;;;;;;;;;;;;4942286;28;19922;-68
2022/01/14 03:58:39;;;;;;;;;;;;;;;;;;4939724;28;19931;-68
2022/01/14 04:01:06;;;;;;;;;;;;;;;;;;4941104;28;19919;-69
2022/01/14 04:03:31;;;;;;;;;;;;;;;;;;4942046;28;19974;-68
2022/01/14 04:05:56;;;;;;;;;;;;;;;;;;4942145;28;20309;-69
2022/01/14 04:08:22;;;;;;;;;;;;;;;;;;4938798;29;19923;-67
2022/01/14 04:10:50;;;;;;;;;;;;;;;;;;4942008;29;20273;-68
2022/01/14 04:13:19;;;;;;;;;;;;;;;;;;4940339;29;21130;-67
2022/01/14 04:15:47;;;;;;;;;;;;;;;;;;4941360;28;20476;-68
2022/01/14 04:18:13;;;;;;;;;;;;;;;;;;4938229;28;19925;-67
2022/01/14 04:20:38;;;;;;;;;;;;;;;;;;4938491;29;20335;-68
2022/01/14 04:23:04;;;;;;;;;;;;;;;;;;4939958;28;19918;-69
2022/01/14 04:25:30;;;;;;;;;;;;;;;;;;4940251;28;19919;-67
2022/01/14 04:27:55;;;;;;;;;;;;;;;;;;4941466;28;19918;-68
2022/01/14 04:30:20;;;;;;;;;;;;;;;;;;4943018;28;20359;-67
2022/01/14 04:32:45;;;;;;;;;;;;;;;;;;4943553;29;19914;-68
2022/01/14 04:35:10;;;;;;;;;;;;;;;;;;4944298;29;20005;-68
2022/01/14 04:37:36;;;;;;;;;;;;;;;;;;4944663;28;20376;-68
2022/01/14 04:40:01;;;;;;;;;;;;;;;;;;4943598;28;20371;-68
2022/01/14 04:42:28;;;;;;;;;;;;;;;;;;4945294;28;19915;-68
2022/01/14 04:44:55;;;;;;;;;;;;;;;;;;4938276;28;20040;-68
2022/01/14 04:47:31;;;;;;;;;;;;;;;;;;4942975;29;20392;-68
2022/01/14 04:49:57;;;;;;;;;;;;;;;;;;4944224;28;19950;-68
2022/01/14 04:52:22;;;;;;;;;;;;;;;;;;4943474;28;20009;-68
2022/01/14 04:54:47;;;;;;;;;;;;;;;;;;4941530;28;19973;-67
2022/01/14 04:57:16;;;;;;;;;;;;;;;;;;4944410;28;19926;-68
2022/01/14 04:59:43;;;;;;;;;;;;;;;;;;4945025;28;19925;-68
2022/01/14 05:02:08;;;;;;;;;;;;;;;;;;4943836;28;19919;-68
2022/01/14 05:04:33;;;;;;;;;;;;;;;;;;4941418;28;19934;-68
2022/01/14 05:07:02;;;;;;;;;;;;;;;;;;4943555;29;19923;-69
2022/01/14 05:09:35;;;;;;;;;;;;;;;;;;4943736;29;20291;-69
2022/01/14 05:12:07;;;;;;;;;;;;;;;;;;4943016;28;20363;-68
2022/01/14 05:14:32;;;;;;;;;;;;;;;;;;4938275;28;19969;-69
2022/01/14 05:16:57;;;;;;;;;;;;;;;;;;4945046;29;20384;-69
2022/01/14 05:19:22;;;;;;;;;;;;;;;;;;4941953;29;19922;-69
2022/01/14 05:21:48;;;;;;;;;;;;;;;;;;4941903;28;19982;-69
2022/01/14 05:24:13;;;;;;;;;;;;;;;;;;4941048;29;20386;-69
2022/01/14 05:26:38;;;;;;;;;;;;;;;;;;4942338;28;19957;-70
2022/01/14 05:29:03;;;;;;;;;;;;;;;;;;4940204;28;19922;-68
2022/01/14 05:31:28;;;;;;;;;;;;;;;;;;4941490;28;19919;-70
2022/01/14 05:33:54;;;;;;;;;;;;;;;;;;4943002;29;19929;-69
2022/01/14 05:36:21;;;;;;;;;;;;;;;;;;4945211;28;19921;-69
2022/01/14 05:38:46;;;;;;;;;;;;;;;;;;4940340;29;19919;-70
2022/01/14 05:41:11;;;;;;;;;;;;;;;;;;4941362;28;19918;-70
2022/01/14 05:43:36;;;;;;;;;;;;;;;;;;4944286;29;19923;-70
2022/01/14 05:46:01;;;;;;;;;;;;;;;;;;4943971;28;19930;-70
2022/01/14 05:48:27;;;;;;;;;;;;;;;;;;4943181;28;19994;-69
2022/01/14 05:50:52;;;;;;;;;;;;;;;;;;4943312;28;19922;-69
2022/01/14 05:53:17;;;;;;;;;;;;;;;;;;4938993;28;19915;-69
2022/01/14 05:55:42;;;;;;;;;;;;;;;;;;4944461;29;19933;-69
2022/01/14 05:58:07;;;;;;;;;;;;;;;;;;4939370;28;19923;-69
2022/01/14 06:00:33;;;;;;;;;;;;;;;;;;4943074;28;19926;-70
2022/01/14 06:02:58;;;;;;;;;;;;;;;;;;4942915;28;19926;-69
2022/01/14 06:05:23;;;;;;;;;;;;;;;;;;4942309;29;19933;-69
2022/01/14 06:07:48;;;;;;;;;;;;;;;;;;4941081;29;19922;-69
2022/01/14 06:10:14;;;;;;;;;;;;;;;;;;4943350;28;19918;-68
2022/01/14 06:12:39;;;;;;;;;;;;;;;;;;4937086;29;19926;-69
2022/01/14 06:15:04;;;;;;;;;;;;;;;;;;4943978;28;19918;-70
2022/01/14 06:17:29;;;;;;;;;;;;;;;;;;4940998;28;20331;-70
2022/01/14 06:19:54;;;;;;;;;;;;;;;;;;4940233;28;20399;-69
2022/01/14 06:22:20;;;;;;;;;;;;;;;;;;4939203;28;20316;-70
2022/01/14 06:24:45;;;;;;;;;;;;;;;;;;4944715;29;20279;-70
2022/01/14 06:27:10;;;;;;;;;;;;;;;;;;4943456;29;19922;-70
2022/01/14 06:29:35;;;;;;;;;;;;;;;;;;4942977;28;19919;-70
2022/01/14 06:32:00;;;;;;;;;;;;;;;;;;4944579;28;19975;-69
2022/01/14 06:34:26;;;;;;;;;;;;;;;;;;4942434;28;20280;-69
2022/01/14 06:36:51;;;;;;;;;;;;;;;;;;4941612;28;20339;-70
2022/01/14 06:39:16;;;;;;;;;;;;;;;;;;4943484;28;19918;-70
2022/01/14 06:41:41;;;;;;;;;;;;;;;;;;4941477;28;20276;-69
2022/01/14 06:44:07;;;;;;;;;;;;;;;;;;4942785;29;19919;-70
2022/01/14 06:46:32;;;;;;;;;;;;;;;;;;4942545;28;19992;-70
2022/01/14 06:48:57;;;;;;;;;;;;;;;;;;4940713;29;19919;-70
2022/01/14 06:51:22;;;;;;;;;;;;;;;;;;4942900;29;19968;-70
2022/01/14 06:53:47;;;;;;;;;;;;;;;;;;4940857;28;19922;-70
2022/01/14 06:56:14;;;;;;;;;;;;;;;;;;4940034;28;19926;-70
2022/01/14 06:58:39;;;;;;;;;;;;;;;;;;4942630;28;20002;-70
2022/01/14 07:01:04;;;;;;;;;;;;;;;;;;4942975;29;19922;-70
2022/01/14 07:03:30;;;;;;;;;;;;;;;;;;4941281;28;20315;-70
2022/01/14 07:05:55;;;;;;;;;;;;;;;;;;4942953;28;20399;-70
2022/01/14 07:08:20;;;;;;;;;;;;;;;;;;4942116;28;19930;-70
2022/01/14 07:10:45;;;;;;;;;;;;;;;;;;4943385;29;19970;-70
2022/01/14 07:13:11;;;;;;;;;;;;;;;;;;4942026;28;19918;-70
2022/01/14 07:15:36;;;;;;;;;;;;;;;;;;4942066;29;19926;-70
2022/01/14 07:18:01;;;;;;;;;;;;;;;;;;4943202;28;19918;-70
2022/01/14 07:20:26;;;;;;;;;;;;;;;;;;4939801;29;19918;-70
2022/01/14 07:22:52;;;;;;;;;;;;;;;;;;4939626;29;19918;-70
2022/01/14 07:25:17;;;;;;;;;;;;;;;;;;4940988;28;20043;-70
2022/01/14 07:27:42;;;;;;;;;;;;;;;;;;4941406;28;19923;-69
2022/01/14 07:30:07;;;;;;;;;;;;;;;;;;4927960;29;19926;-69
2022/01/14 07:32:32;;;;;;;;;;;;;;;;;;4927182;28;19926;-69
2022/01/14 07:34:58;;;;;;;;;;;;;;;;;;4939645;29;20620;-69
2022/01/14 07:37:23;;;;;;;;;;;;;;;;;;4939882;29;20030;-69
2022/01/14 07:39:48;;;;;;;;;;;;;;;;;;4938249;29;19965;-70
2022/01/14 07:42:13;;;;;;;;;;;;;;;;;;4941755;28;19914;-70
2022/01/14 07:44:39;;;;;;;;;;;;;;;;;;4942969;28;20025;-69
2022/01/14 07:47:04;;;;;;;;;;;;;;;;;;4942398;29;19974;-68
2022/01/14 07:49:29;;;;;;;;;;;;;;;;;;4937454;29;20002;-69
2022/01/14 07:51:54;;;;;;;;;;;;;;;;;;4943468;29;19965;-69
2022/01/14 07:54:19;;;;;;;;;;;;;;;;;;4942542;28;19914;-69
2022/01/14 07:56:45;;;;;;;;;;;;;;;;;;4936901;28;20030;-70
2022/01/14 07:59:10;;;;;;;;;;;;;;;;;;4936125;29;19997;-69
2022/01/14 08:01:36;;;;;;;;;;;;;;;;;;4935942;29;20410;-69
2022/01/14 08:04:01;;;;;;;;;;;;;;;;;;4937621;28;19922;-69
2022/01/14 08:06:31;;;;;;;;;;;;;;;;;;4943600;29;19930;-69
2022/01/14 08:08:57;;;;;;;;;;;;;;;;;;4943461;28;20435;-71
2022/01/14 08:11:22;;;;;;;;;;;;;;;;;;4940960;29;19960;-68
2022/01/14 08:13:47;;;;;;;;;;;;;;;;;;4941609;28;20351;-68
2022/01/14 08:16:12;;;;;;;;;;;;;;;;;;4941101;28;19918;-69
2022/01/14 08:18:38;;;;;;;;;;;;;;;;;;4943490;28;19918;-69
2022/01/14 08:21:03;;;;;;;;;;;;;;;;;;4944207;29;19966;-69
2022/01/14 08:23:28;;;;;;;;;;;;;;;;;;4939416;28;19969;-71
2022/01/14 08:25:55;;;;;;;;;;;;;;;;;;4924224;29;20335;-70
2022/01/14 08:28:20;;;;;;;;;;;;;;;;;;4943986;29;19925;-71
2022/01/14 08:30:46;;;;;;;;;;;;;;;;;;4941404;28;19918;-71
2022/01/14 08:33:12;;;;;;;;;;;;;;;;;;4943937;28;20343;-71
2022/01/14 08:35:37;;;;;;;;;;;;;;;;;;4940966;28;20438;-72
2022/01/14 08:38:02;;;;;;;;;;;;;;;;;;4941445;29;19926;-72
2022/01/14 08:40:28;;;;;;;;;;;;;;;;;;4936777;28;20364;-71
2022/01/14 08:42:54;;;;;;;;;;;;;;;;;;4939921;29;20729;-72
2022/01/14 08:45:21;;;;;;;;;;;;;;;;;;4940545;28;19918;-72
2022/01/14 08:47:46;;;;;;;;;;;;;;;;;;4939020;28;19923;-70
2022/01/14 08:50:11;;;;;;;;;;;;;;;;;;4943074;28;19997;-72
2022/01/14 08:52:37;;;;;;;;;;;;;;;;;;4939821;29;19925;-72
2022/01/14 08:55:02;;;;;;;;;;;;;;;;;;4940024;28;19918;-69
2022/01/14 08:57:27;;;;;;;;;;;;;;;;;;4941262;28;19966;-71
2022/01/14 08:59:52;;;;;;;;;;;;;;;;;;4938849;28;19923;-71
2022/01/14 09:02:17;;;;;;;;;;;;;;;;;;4941286;28;20302;-71
2022/01/14 09:04:43;;;;;;;;;;;;;;;;;;4941914;28;19981;-71
2022/01/14 09:07:08;;;;;;;;;;;;;;;;;;4941768;28;20335;-71
2022/01/14 09:09:33;;;;;;;;;;;;;;;;;;4941686;29;19945;-68
2022/01/14 09:12:00;;;;;;;;;;;;;;;;;;4939654;28;20250;-69
2022/01/14 09:14:25;;;;;;;;;;;;;;;;;;4938964;29;19926;-69
2022/01/14 09:16:50;;;;;;;;;;;;;;;;;;4942774;28;19922;-72
2022/01/14 09:19:16;;;;;;;;;;;;;;;;;;4937632;28;20021;-70
2022/01/14 09:21:44;;;;;;;;;;;;;;;;;;4940972;28;19950;-70
2022/01/14 09:24:09;;;;;;;;;;;;;;;;;;4941513;29;20005;-70
2022/01/14 09:26:34;;;;;;;;;;;;;;;;;;4941339;29;19923;-70
2022/01/14 09:29:00;;;;;;;;;;;;;;;;;;4939743;28;19964;-70
2022/01/14 09:31:25;;;;;;;;;;;;;;;;;;4940115;28;19918;-71
2022/01/14 09:33:50;;;;;;;;;;;;;;;;;;4942343;29;20299;-71
2022/01/14 09:36:15;;;;;;;;;;;;;;;;;;4940342;28;20428;-69
2022/01/14 09:38:41;;;;;;;;;;;;;;;;;;4940331;29;20368;-69
2022/01/14 09:41:07;;;;;;;;;;;;;;;;;;4942276;28;19919;-69
2022/01/14 09:43:36;;;;;;;;;;;;;;;;;;4940785;28;19974;-71
2022/01/14 09:46:01;;;;;;;;;;;;;;;;;;4942748;29;19922;-69
2022/01/14 09:48:27;;;;;;;;;;;;;;;;;;4942074;28;19974;-70
2022/01/14 09:50:52;;;;;;;;;;;;;;;;;;4941365;28;20243;-69
2022/01/14 09:53:17;;;;;;;;;;;;;;;;;;4943123;28;19919;-70
2022/01/14 09:55:42;;;;;;;;;;;;;;;;;;4942854;28;19930;-67
2022/01/14 09:58:08;;;;;;;;;;;;;;;;;;4938223;28;20287;-70
2022/01/14 10:00:33;;;;;;;;;;;;;;;;;;4938304;28;20002;-69
2022/01/14 10:02:58;;;;;;;;;;;;;;;;;;4942586;29;20261;-69
2022/01/14 10:05:23;;;;;;;;;;;;;;;;;;4941071;29;19927;-69
2022/01/14 10:07:48;;;;;;;;;;;;;;;;;;4937996;29;19929;-71
2022/01/14 10:10:14;;;;;;;;;;;;;;;;;;4935390;29;19929;-69
2022/01/14 10:12:39;;;;;;;;;;;;;;;;;;4941680;29;19919;-69
2022/01/14 10:15:06;;;;;;;;;;;;;;;;;;4941564;28;20175;-69
2022/01/14 10:17:32;;;;;;;;;;;;;;;;;;4938137;29;20009;-69
2022/01/14 10:19:57;;;;;;;;;;;;;;;;;;4938118;29;20392;-68
2022/01/14 10:22:22;;;;;;;;;;;;;;;;;;4938227;28;20279;-69
2022/01/14 10:24:47;;;;;;;;;;;;;;;;;;4942239;29;20423;-68
2022/01/14 10:27:13;;;;;;;;;;;;;;;;;;4942471;28;20100;-68
2022/01/14 10:29:38;;;;;;;;;;;;;;;;;;4941304;28;19970;-69
2022/01/14 10:32:03;;;;;;;;;;;;;;;;;;4941556;29;19973;-68
2022/01/14 10:34:29;;;;;;;;;;;;;;;;;;4937183;28;19961;-68
2022/01/14 10:36:54;;;;;;;;;;;;;;;;;;4940883;29;19923;-68
2022/01/14 10:39:19;;;;;;;;;;;;;;;;;;4940726;28;20314;-70
2022/01/14 10:41:44;;;;;;;;;;;;;;;;;;4942680;28;20410;-68
2022/01/14 10:44:09;;;;;;;;;;;;;;;;;;4939785;28;19984;-68
2022/01/14 10:46:35;;;;;;;;;;;;;;;;;;4940101;29;19993;-68
2022/01/14 10:49:00;;;;;;;;;;;;;;;;;;4937700;29;19990;-68
2022/01/14 10:51:25;;;;;;;;;;;;;;;;;;4940562;28;20387;-69
2022/01/14 10:53:50;;;;;;;;;;;;;;;;;;4938709;28;20459;-68
2022/01/14 10:56:15;;;;;;;;;;;;;;;;;;4939297;28;19933;-68
2022/01/14 10:58:41;;;;;;;;;;;;;;;;;;4938101;28;19922;-68
2022/01/14 11:01:06;;;;;;;;;;;;;;;;;;4928384;29;20507;-68
2022/01/14 11:03:31;;;;;;;;;;;;;;;;;;4934693;29;20257;-68
2022/01/14 11:05:56;;;;;;;;;;;;;;;;;;4937072;28;20022;-68
2022/01/14 11:08:22;;;;;;;;;;;;;;;;;;4937107;29;20013;-68
2022/01/14 11:10:47;;;;;;;;;;;;;;;;;;4943993;28;19973;-68
2022/01/14 11:13:12;;;;;;;;;;;;;;;;;;4941990;28;19918;-68
2022/01/14 11:15:37;;;;;;;;;;;;;;;;;;4943340;29;20296;-68
2022/01/14 11:18:05;;;;;;;;;;;;;;;;;;4940633;28;19918;-69
2022/01/14 11:20:33;;;;;;;;;;;;;;;;;;4940389;29;19938;-68
2022/01/14 11:23:16;;;;;;;;;;;;;;;;;;4941444;28;20013;-68
2022/01/14 11:25:42;;;;;;;;;;;;;;;;;;4940190;29;19993;-68
2022/01/14 11:28:07;;;;;;;;;;;;;;;;;;4940729;29;20324;-69
2022/01/14 11:30:32;;;;;;;;;;;;;;;;;;4939370;28;20250;-68
2022/01/14 11:32:57;;;;;;;;;;;;;;;;;;4938815;29;19925;-67
2022/01/14 11:35:23;;;;;;;;;;;;;;;;;;4941711;29;19918;-68
2022/01/14 11:37:48;;;;;;;;;;;;;;;;;;4943715;28;19925;-68
2022/01/14 11:40:15;;;;;;;;;;;;;;;;;;4938868;28;19954;-68
2022/01/14 11:42:41;;;;;;;;;;;;;;;;;;4943236;28;20018;-67
2022/01/14 11:45:06;;;;;;;;;;;;;;;;;;4943842;28;19923;-68
2022/01/14 11:47:41;;;;;;;;;;;;;;;;;;4940335;29;20441;-66
2022/01/14 11:50:06;;;;;;;;;;;;;;;;;;4938082;29;20294;-67
2022/01/14 11:52:31;;;;;;;;;;;;;;;;;;4942917;28;20347;-66
2022/01/14 11:54:56;;;;;;;;;;;;;;;;;;4941559;28;19946;-68
2022/01/14 11:57:21;;;;;;;;;;;;;;;;;;4939551;29;19923;-67
2022/01/14 11:59:47;;;;;;;;;;;;;;;;;;4937691;28;19918;-66
2022/01/14 12:02:12;;;;;;;;;;;;;;;;;;4941135;29;19918;-68
2022/01/14 12:04:37;;;;;;;;;;;;;;;;;;4939285;28;20016;-65
2022/01/14 12:07:02;;;;;;;;;;;;;;;;;;4943687;28;19922;-66
2022/01/14 12:09:33;;;;;;;;;;;;;;;;;;4941404;28;19945;-67
2022/01/14 12:11:58;;;;;;;;;;;;;;;;;;4941127;28;20371;-69
2022/01/14 12:14:23;;;;;;;;;;;;;;;;;;4941652;28;19926;-66
2022/01/14 12:17:00;;;;;;;;;;;;;;;;;;4940637;29;19919;-67
2022/01/14 12:19:26;;;;;;;;;;;;;;;;;;4941210;28;19918;-65
2022/01/14 12:21:52;;;;;;;;;;;;;;;;;;4921812;29;20291;-65
2022/01/14 12:24:17;;;;;;;;;;;;;;;;;;4941684;28;19929;-66
2022/01/14 12:26:42;;;;;;;;;;;;;;;;;;4935867;29;19949;-70
2022/01/14 12:29:08;;;;;;;;;;;;;;;;;;4939082;28;20103;-65
2022/01/14 12:31:33;;;;;;;;;;;;;;;;;;4939504;29;19918;-67
2022/01/14 12:33:58;;;;;;;;;;;;;;;;;;4938599;28;19919;-65
2022/01/14 12:36:23;;;;;;;;;;;;;;;;;;4939656;28;19922;-69
2022/01/14 12:38:49;;;;;;;;;;;;;;;;;;4937427;28;19925;-67
2022/01/14 12:41:14;;;;;;;;;;;;;;;;;;4940763;29;20435;-67
2022/01/14 12:43:39;;;;;;;;;;;;;;;;;;4942359;29;19961;-67
2022/01/14 12:46:24;;;;;;;;;;;;;;;;;;4934109;28;19923;-69
2022/01/14 12:48:49;;;;;;;;;;;;;;;;;;4938133;29;19929;-67
2022/01/14 12:51:15;;;;;;;;;;;;;;;;;;4942755;28;19919;-69
2022/01/14 12:53:40;;;;;;;;;;;;;;;;;;4944614;28;19946;-67
2022/01/14 12:56:05;;;;;;;;;;;;;;;;;;4943714;28;19922;-69
2022/01/14 12:58:31;;;;;;;;;;;;;;;;;;4942211;28;19926;-66
2022/01/14 13:00:56;;;;;;;;;;;;;;;;;;4943439;29;20359;-67
2022/01/14 13:03:21;;;;;;;;;;;;;;;;;;4944964;29;19918;-69
2022/01/14 13:05:47;;;;;;;;;;;;;;;;;;4944801;28;20431;-67
2022/01/14 13:08:12;;;;;;;;;;;;;;;;;;4942468;28;20034;-68
2022/01/14 13:10:38;;;;;;;;;;;;;;;;;;4945759;29;19922;-67
2022/01/14 13:13:04;;;;;;;;;;;;;;;;;;4943023;29;19918;-70
2022/01/14 13:15:32;;;;;;;;;;;;;;;;;;4959816;28;20001;-71
2022/01/14 13:18:02;;;;;;;;;;;;;;;;;;4941757;28;19946;-68
2022/01/14 13:20:27;;;;;;;;;;;;;;;;;;4942568;29;19919;-68
2022/01/14 13:22:53;;;;;;;;;;;;;;;;;;4942257;29;19918;-68
2022/01/14 13:25:18;;;;;;;;;;;;;;;;;;4942025;29;20324;-68
2022/01/14 13:27:44;;;;;;;;;;;;;;;;;;4943568;28;20359;-68
2022/01/14 13:30:09;;;;;;;;;;;;;;;;;;4943007;28;19918;-69
2022/01/14 13:32:35;;;;;;;;;;;;;;;;;;4932872;29;20257;-68
2022/01/14 13:35:00;;;;;;;;;;;;;;;;;;4939890;29;19919;-69
2022/01/14 13:37:26;;;;;;;;;;;;;;;;;;4942237;29;19949;-67
2022/01/14 13:39:51;;;;;;;;;;;;;;;;;;4941631;28;19921;-68
2022/01/14 13:42:16;;;;;;;;;;;;;;;;;;4943390;29;20366;-70
2022/01/14 13:44:43;;;;;;;;;;;;;;;;;;4943815;29;20339;-68
2022/01/14 13:47:12;;;;;;;;;;;;;;;;;;4942607;28;19923;-69
2022/01/14 13:49:37;;;;;;;;;;;;;;;;;;4942158;29;19965;-69
2022/01/14 13:52:03;;;;;;;;;;;;;;;;;;4941093;28;20243;-69
2022/01/14 13:54:29;;;;;;;;;;;;;;;;;;4941390;29;19922;-67
2022/01/14 13:56:54;;;;;;;;;;;;;;;;;;4932043;28;19926;-67
2022/01/14 13:59:19;;;;;;;;;;;;;;;;;;4932962;28;20233;-69
2022/01/14 14:01:44;;;;;;;;;;;;;;;;;;4920161;29;20014;-68
2022/01/14 14:04:15;;;;;;;;;;;;;;;;;;4936098;28;20380;-67
2022/01/14 14:06:56;;;;;;;;;;;;;;;;;;4933701;28;21389;-67
2022/01/14 14:09:30;;;;;;;;;;;;;;;;;;4933849;29;19922;-70
2022/01/14 14:12:11;;;;;;;;;;;;;;;;;;4936208;29;20364;-69
2022/01/14 14:17:20;;;;;;;;;;;;;;;;;;4935885;29;19918;-68
2022/01/14 14:19:46;;;;;;;;;;;;;;;;;;4937906;28;19925;-67
2022/01/14 14:22:11;;;;;;;;;;;;;;;;;;4939447;28;20449;-69
2022/01/14 14:24:36;;;;;;;;;;;;;;;;;;4937290;29;19923;-68
2022/01/14 14:27:01;;;;;;;;;;;;;;;;;;4940615;28;20001;-68
2022/01/14 14:29:28;;;;;;;;;;;;;;;;;;4939436;28;19974;-69
2022/01/14 14:31:53;;;;;;;;;;;;;;;;;;4939119;29;20313;-69
2022/01/14 14:34:18;;;;;;;;;;;;;;;;;;4934219;29;19918;-69
2022/01/14 14:36:44;;;;;;;;;;;;;;;;;;4938656;29;19966;-69
2022/01/14 14:39:11;;;;;;;;;;;;;;;;;;4935838;28;20321;-69
2022/01/14 14:41:36;;;;;;;;;;;;;;;;;;4937775;29;19918;-69
2022/01/14 14:44:01;;;;;;;;;;;;;;;;;;4937425;29;19922;-69
2022/01/14 14:46:27;;;;;;;;;;;;;;;;;;4938235;29;20253;-68
2022/01/14 14:48:53;;;;;;;;;;;;;;;;;;4937327;28;19919;-69
2022/01/14 14:51:18;;;;;;;;;;;;;;;;;;4939351;28;19918;-68
2022/01/14 14:53:43;;;;;;;;;;;;;;;;;;4939090;29;19950;-67
2022/01/14 14:56:10;;;;;;;;;;;;;;;;;;4939616;29;20106;-69
2022/01/14 14:58:35;;;;;;;;;;;;;;;;;;4936797;29;20009;-68
2022/01/14 15:01:00;;;;;;;;;;;;;;;;;;4936914;28;19918;-68
2022/01/14 15:03:25;;;;;;;;;;;;;;;;;;4937965;28;20182;-69
2022/01/14 15:05:51;;;;;;;;;;;;;;;;;;4941569;29;19926;-68
2022/01/14 15:08:16;;;;;;;;;;;;;;;;;;4938279;29;19923;-69
2022/01/14 15:10:42;;;;;;;;;;;;;;;;;;4937417;29;20150;-68
2022/01/14 15:13:09;;;;;;;;;;;;;;;;;;4938993;29;19915;-68
2022/01/14 15:15:50;;;;;;;;;;;;;;;;;;4937915;28;20340;-68
2022/01/14 15:18:15;;;;;;;;;;;;;;;;;;4936743;29;20730;-68
2022/01/14 15:20:41;;;;;;;;;;;;;;;;;;4931421;28;19929;-69
2022/01/14 15:23:07;;;;;;;;;;;;;;;;;;4926826;29;19918;-68
2022/01/14 15:25:32;;;;;;;;;;;;;;;;;;4935711;29;20049;-69
2022/01/14 15:27:57;;;;;;;;;;;;;;;;;;4930530;29;20036;-68
2022/01/14 15:30:22;;;;;;;;;;;;;;;;;;4928823;29;20437;-68
2022/01/14 15:32:47;;;;;;;;;;;;;;;;;;4938713;28;20347;-68
2022/01/14 15:35:13;;;;;;;;;;;;;;;;;;4928425;28;20422;-68
2022/01/14 15:37:38;;;;;;;;;;;;;;;;;;4936948;28;20069;-68
2022/01/14 15:40:05;;;;;;;;;;;;;;;;;;4932696;29;19958;-68
2022/01/14 15:42:30;;;;;;;;;;;;;;;;;;4930436;29;19918;-68
2022/01/14 15:44:55;;;;;;;;;;;;;;;;;;4935833;29;19930;-68
2022/01/14 15:47:21;;;;;;;;;;;;;;;;;;4930432;28;20368;-68
2022/01/14 15:49:46;;;;;;;;;;;;;;;;;;4936246;29;19923;-67
2022/01/14 15:52:11;;;;;;;;;;;;;;;;;;4928471;28;19919;-67
2022/01/14 15:54:36;;;;;;;;;;;;;;;;;;4929524;29;20383;-67
2022/01/14 15:57:01;;;;;;;;;;;;;;;;;;4935103;28;19929;-67
2022/01/14 15:59:28;;;;;;;;;;;;;;;;;;4927562;28;19918;-68
2022/01/14 16:01:53;;;;;;;;;;;;;;;;;;4938446;29;19942;-69
2022/01/14 16:04:18;;;;;;;;;;;;;;;;;;4931104;28;20084;-67
2022/01/14 16:06:44;;;;;;;;;;;;;;;;;;4932785;28;19922;-68
2022/01/14 16:09:09;;;;;;;;;;;;;;;;;;4936472;28;20367;-67
2022/01/14 16:11:35;;;;;;;;;;;;;;;;;;4929100;29;20081;-68
2022/01/14 16:14:10;;;;;;;;;;;;;;;;;;4934524;29;19965;-68
2022/01/14 16:16:35;;;;;;;;;;;;;;;;;;4930570;29;19923;-68
2022/01/14 16:19:00;;;;;;;;;;;;;;;;;;4930984;28;19961;-68
2022/01/14 16:21:26;;;;;;;;;;;;;;;;;;4936681;28;20275;-68
2022/01/14 16:23:51;;;;;;;;;;;;;;;;;;4928921;28;19941;-69
2022/01/14 16:26:16;;;;;;;;;;;;;;;;;;4938149;28;19923;-69
2022/01/14 16:28:42;;;;;;;;;;;;;;;;;;4934847;29;20426;-68
2022/01/14 16:31:07;;;;;;;;;;;;;;;;;;4936322;28;19945;-67
2022/01/14 16:33:32;;;;;;;;;;;;;;;;;;4944137;28;20188;-68
2022/01/14 16:35:59;;;;;;;;;;;;;;;;;;4934769;28;19925;-68
2022/01/14 16:38:24;;;;;;;;;;;;;;;;;;4939903;28;19919;-67
2022/01/14 16:40:50;;;;;;;;;;;;;;;;;;4935015;28;20430;-69
2022/01/14 16:43:16;;;;;;;;;;;;;;;;;;4936365;28;19918;-69
2022/01/14 16:45:41;;;;;;;;;;;;;;;;;;4940682;28;20247;-69
2022/01/14 16:48:07;;;;;;;;;;;;;;;;;;4929633;28;19922;-67
2022/01/14 16:50:32;;;;;;;;;;;;;;;;;;4922092;29;19915;-69
2022/01/14 16:52:57;;;;;;;;;;;;;;;;;;4917287;29;20022;-69
2022/01/14 16:55:22;;;;;;;;;;;;;;;;;;4914999;29;19961;-68
2022/01/14 16:57:48;;;;;;;;;;;;;;;;;;4920815;29;19918;-68
2022/01/14 17:00:13;;;;;;;;;;;;;;;;;;4913942;29;20185;-69
2022/01/14 17:02:39;;;;;;;;;;;;;;;;;;4921767;29;19923;-67
2022/01/14 17:05:04;;;;;;;;;;;;;;;;;;4913492;28;19934;-68
2022/01/14 17:07:29;;;;;;;;;;;;;;;;;;4914675;29;20292;-66
2022/01/14 17:09:55;;;;;;;;;;;;;;;;;;4916526;29;20328;-67
2022/01/14 17:12:22;;;;;;;;;;;;;;;;;;4909234;29;19974;-68